createdAt,value
2018-12-02T00:00:55.254Z,3.00
2018-12-02T00:01:58.467Z,3.00
2018-12-02T00:03:01.634Z,3.00
2018-12-02T00:04:04.565Z,2.50
2018-12-02T00:05:07.574Z,4.50
2018-12-02T00:06:10.559Z,2.50
2018-12-02T00:07:14.366Z,3.00
2018-12-02T00:08:17.425Z,2.50
2018-12-02T00:09:20.417Z,3.00
2018-12-02T00:10:24.462Z,3.00
2018-12-02T00:11:31.126Z,3.00
2018-12-02T00:12:35.098Z,3.00
2018-12-02T00:13:38.811Z,1.00
2018-12-02T00:14:42.178Z,3.00
2018-12-02T00:15:45.315Z,4.00
2018-12-02T00:16:48.312Z,3.00
2018-12-02T00:17:51.280Z,1.00
2018-12-02T00:18:54.149Z,2.00
2018-12-02T00:19:57.352Z,2.50
2018-12-02T00:21:01.862Z,3.00
2018-12-02T00:22:04.775Z,3.00
2018-12-02T00:23:07.912Z,3.00
2018-12-02T00:24:11.153Z,1.50
2018-12-02T00:25:14.004Z,3.00
2018-12-02T00:26:17.155Z,1.00
2018-12-02T00:27:20.107Z,3.00
2018-12-02T00:28:22.965Z,3.00
2018-12-02T00:29:25.907Z,2.50
2018-12-02T00:30:28.824Z,3.00
2018-12-02T00:31:31.755Z,4.00
2018-12-02T00:32:35.485Z,3.00
2018-12-02T00:33:38.446Z,3.00
2018-12-02T00:34:41.836Z,4.50
2018-12-02T00:35:45.449Z,3.00
2018-12-02T00:36:48.315Z,3.00
2018-12-02T00:37:51.188Z,3.00
2018-12-02T00:38:54.351Z,2.00
2018-12-02T00:40:00.377Z,2.50
2018-12-02T00:41:03.477Z,1.50
2018-12-02T00:42:06.329Z,3.00
2018-12-02T00:43:09.908Z,1.50
2018-12-02T00:44:12.836Z,1.50
2018-12-02T00:45:17.131Z,3.00
2018-12-02T00:46:20.072Z,2.50
2018-12-02T00:47:23.036Z,2.00
2018-12-02T00:48:26.499Z,3.00
2018-12-02T00:49:29.360Z,2.50
2018-12-02T00:50:32.222Z,3.00
2018-12-02T00:51:35.444Z,1.00
2018-12-02T00:52:39.075Z,1.00
2018-12-02T00:53:42.846Z,3.00
2018-12-02T00:54:45.747Z,1.00
2018-12-02T00:55:48.797Z,1.00
2018-12-02T00:56:51.742Z,2.50
2018-12-02T00:57:55.507Z,3.00
2018-12-02T00:58:58.395Z,2.00
2018-12-02T01:00:01.271Z,2.50
2018-12-02T01:01:04.797Z,3.00
2018-12-02T01:02:11.514Z,1.00
2018-12-02T01:03:14.412Z,3.00
2018-12-02T01:04:17.609Z,1.00
2018-12-02T01:05:20.800Z,1.00
2018-12-02T01:06:23.956Z,1.00
2018-12-02T01:07:26.803Z,2.00
2018-12-02T01:08:29.647Z,3.00
2018-12-02T01:09:32.607Z,1.50
2018-12-02T01:10:36.178Z,2.00
2018-12-02T01:11:39.258Z,1.00
2018-12-02T01:12:42.380Z,2.00
2018-12-02T01:13:45.493Z,1.00
2018-12-02T01:14:48.801Z,2.00
2018-12-02T01:15:52.576Z,3.00
2018-12-02T01:16:56.597Z,1.50
2018-12-02T01:18:00.736Z,3.00
2018-12-02T01:19:06.324Z,1.00
2018-12-02T01:20:09.453Z,1.00
2018-12-02T01:21:12.495Z,2.50
2018-12-02T01:22:15.753Z,1.00
2018-12-02T01:23:19.339Z,2.50
2018-12-02T01:24:22.332Z,3.00
2018-12-02T01:25:25.548Z,3.00
2018-12-02T01:26:28.820Z,0.75
2018-12-02T01:27:31.887Z,3.00
2018-12-02T01:28:34.835Z,1.00
2018-12-02T01:29:38.204Z,1.00
2018-12-02T01:30:41.316Z,2.00
2018-12-02T01:31:44.454Z,3.00
2018-12-02T01:32:47.364Z,2.00
2018-12-02T01:33:51.272Z,1.00
2018-12-02T01:34:54.769Z,2.50
2018-12-02T01:35:59.352Z,2.50
2018-12-02T01:37:03.330Z,1.00
2018-12-02T01:38:06.270Z,1.00
2018-12-02T01:39:09.459Z,3.00
2018-12-02T01:40:12.448Z,1.00
2018-12-02T01:41:15.686Z,1.00
2018-12-02T01:42:19.094Z,1.00
2018-12-02T01:43:22.857Z,1.00
2018-12-02T01:44:26.222Z,1.00
2018-12-02T01:45:29.429Z,1.50
2018-12-02T01:46:32.502Z,1.50
2018-12-02T01:47:35.706Z,2.00
2018-12-02T01:48:39.115Z,1.00
2018-12-02T01:49:42.214Z,1.00
2018-12-02T01:50:45.512Z,0.75
2018-12-02T01:51:48.381Z,1.00
2018-12-02T01:52:51.649Z,1.00
2018-12-02T01:53:55.146Z,1.50
2018-12-02T01:54:59.681Z,2.50
2018-12-02T01:56:03.610Z,1.00
2018-12-02T01:57:06.477Z,1.00
2018-12-02T01:58:09.399Z,2.50
2018-12-02T01:59:12.263Z,1.50
2018-12-02T02:00:15.494Z,1.00
2018-12-02T02:01:18.758Z,1.50
2018-12-02T02:02:22.840Z,1.00
2018-12-02T02:03:25.872Z,2.50
2018-12-02T02:04:28.736Z,1.00
2018-12-02T02:05:31.584Z,1.00
2018-12-02T02:06:34.435Z,1.00
2018-12-02T02:07:38.466Z,1.00
2018-12-02T02:08:45.036Z,0.50
2018-12-02T02:09:48.050Z,1.00
2018-12-02T02:10:50.907Z,1.00
2018-12-02T02:11:53.909Z,0.75
2018-12-02T02:12:58.531Z,1.00
2018-12-02T02:14:01.943Z,1.00
2018-12-02T02:15:05.029Z,1.00
2018-12-02T02:16:07.897Z,1.00
2018-12-02T02:17:10.878Z,2.00
2018-12-02T02:18:14.104Z,3.00
2018-12-02T02:19:16.950Z,1.00
2018-12-02T02:20:20.557Z,1.00
2018-12-02T02:21:23.392Z,1.00
2018-12-02T02:22:26.511Z,1.00
2018-12-02T02:23:29.373Z,1.00
2018-12-02T02:24:32.618Z,1.00
2018-12-02T02:25:35.466Z,1.00
2018-12-02T02:26:39.786Z,2.00
2018-12-02T02:27:43.999Z,2.00
2018-12-02T02:28:46.950Z,1.00
2018-12-02T02:29:50.286Z,1.00
2018-12-02T02:30:53.203Z,1.00
2018-12-02T02:31:56.295Z,3.00
2018-12-02T02:32:59.543Z,1.50
2018-12-02T02:34:03.779Z,1.50
2018-12-02T02:35:07.487Z,0.50
2018-12-02T02:36:10.383Z,0.75
2018-12-02T02:38:21.986Z,1.00
2018-12-02T02:39:25.261Z,1.00
2018-12-02T02:40:28.144Z,1.50
2018-12-02T02:41:31.124Z,2.50
2018-12-02T02:42:34.211Z,1.00
2018-12-02T02:43:42.529Z,1.00
2018-12-02T02:44:45.706Z,1.00
2018-12-02T02:45:48.848Z,1.00
2018-12-02T02:46:52.073Z,0.00
2018-12-02T02:47:55.511Z,1.00
2018-12-02T02:48:58.378Z,1.00
2018-12-02T02:50:01.523Z,1.00
2018-12-02T02:51:04.517Z,1.00
2018-12-02T02:52:07.523Z,1.00
2018-12-02T02:53:10.644Z,1.00
2018-12-02T02:54:13.984Z,1.00
2018-12-02T02:55:17.315Z,1.00
2018-12-02T02:56:20.647Z,1.00
2018-12-02T02:57:23.483Z,1.00
2018-12-02T02:58:26.808Z,1.00
2018-12-02T02:59:30.112Z,0.75
2018-12-02T03:00:33.206Z,1.00
2018-12-02T03:01:36.086Z,1.00
2018-12-02T03:02:39.502Z,1.00
2018-12-02T03:03:42.498Z,1.50
2018-12-02T03:04:45.505Z,1.00
2018-12-02T03:05:48.475Z,2.50
2018-12-02T03:06:51.938Z,1.00
2018-12-02T03:07:55.060Z,1.00
2018-12-02T03:08:58.467Z,1.00
2018-12-02T03:10:01.495Z,1.00
2018-12-02T03:11:04.658Z,1.00
2018-12-02T03:12:07.868Z,1.00
2018-12-02T03:13:10.726Z,2.00
2018-12-02T03:14:14.327Z,0.50
2018-12-02T03:15:18.478Z,1.00
2018-12-02T03:16:21.678Z,0.75
2018-12-02T03:17:24.503Z,1.00
2018-12-02T03:18:27.370Z,1.00
2018-12-02T03:19:30.340Z,0.00
2018-12-02T03:20:33.398Z,1.00
2018-12-02T03:21:36.852Z,1.00
2018-12-02T03:22:39.874Z,1.00
2018-12-02T03:23:42.738Z,0.00
2018-12-02T03:24:45.886Z,1.00
2018-12-02T03:25:48.825Z,1.00
2018-12-02T03:26:52.011Z,0.00
2018-12-02T03:27:55.476Z,0.00
2018-12-02T03:28:58.580Z,1.00
2018-12-02T03:30:01.433Z,1.00
2018-12-02T03:31:04.495Z,1.00
2018-12-02T03:32:07.567Z,1.00
2018-12-02T03:33:10.409Z,1.00
2018-12-02T03:34:13.588Z,1.00
2018-12-02T03:35:16.639Z,0.75
2018-12-02T03:36:19.563Z,1.00
2018-12-02T03:37:22.757Z,1.00
2018-12-02T03:38:25.587Z,1.50
2018-12-02T03:39:28.563Z,1.00
2018-12-02T03:40:31.726Z,1.00
2018-12-02T03:41:34.630Z,1.00
2018-12-02T03:42:37.500Z,1.00
2018-12-02T03:43:40.623Z,1.00
2018-12-02T03:44:43.502Z,1.00
2018-12-02T03:45:46.352Z,1.00
2018-12-02T03:46:49.547Z,1.00
2018-12-02T03:47:52.406Z,0.75
2018-12-02T03:48:55.257Z,1.00
2018-12-02T03:49:58.434Z,1.00
2018-12-02T03:51:01.627Z,1.00
2018-12-02T03:52:04.521Z,1.00
2018-12-02T03:53:07.966Z,1.00
2018-12-02T03:54:10.859Z,0.75
2018-12-02T03:55:13.695Z,1.00
2018-12-02T03:56:18.644Z,2.00
2018-12-02T03:57:21.606Z,1.00
2018-12-02T03:58:24.844Z,0.50
2018-12-02T03:59:28.667Z,0.75
2018-12-02T04:00:31.881Z,0.75
2018-12-02T04:01:34.854Z,1.00
2018-12-02T04:02:38.059Z,1.00
2018-12-02T04:03:41.648Z,0.25
2018-12-02T04:04:44.723Z,1.00
2018-12-02T04:05:48.166Z,0.00
2018-12-02T04:06:51.132Z,0.50
2018-12-02T04:07:54.499Z,0.75
2018-12-02T04:08:57.671Z,0.50
2018-12-02T04:10:00.626Z,0.75
2018-12-02T04:11:03.458Z,1.00
2018-12-02T04:12:06.590Z,0.00
2018-12-02T04:13:09.413Z,0.50
2018-12-02T04:14:12.252Z,1.00
2018-12-02T04:15:15.088Z,1.00
2018-12-02T04:16:17.906Z,1.00
2018-12-02T04:17:20.976Z,0.25
2018-12-02T04:18:24.993Z,0.75
2018-12-02T04:19:27.998Z,0.00
2018-12-02T04:20:31.674Z,1.00
2018-12-02T04:21:34.908Z,0.50
2018-12-02T04:22:37.959Z,0.25
2018-12-02T04:23:41.024Z,0.00
2018-12-02T04:24:44.339Z,0.75
2018-12-02T04:25:47.190Z,0.50
2018-12-02T04:26:50.177Z,0.25
2018-12-02T04:27:53.030Z,1.00
2018-12-02T04:28:56.058Z,1.00
2018-12-02T04:29:58.859Z,0.25
2018-12-02T04:31:01.695Z,0.25
2018-12-02T04:32:05.005Z,0.00
2018-12-02T04:33:08.275Z,0.75
2018-12-02T04:34:11.466Z,0.50
2018-12-02T04:35:14.281Z,0.00
2018-12-02T04:36:17.632Z,0.75
2018-12-02T04:37:20.509Z,0.00
2018-12-02T04:38:23.367Z,1.00
2018-12-02T04:39:26.184Z,0.00
2018-12-02T04:40:29.371Z,0.50
2018-12-02T04:41:32.498Z,0.00
2018-12-02T04:42:40.539Z,0.00
2018-12-02T04:43:44.045Z,0.00
2018-12-02T04:44:46.880Z,0.25
2018-12-02T04:45:50.473Z,0.00
2018-12-02T04:46:53.285Z,0.25
2018-12-02T04:47:56.102Z,0.00
2018-12-02T04:48:59.228Z,0.00
2018-12-02T04:50:02.077Z,0.00
2018-12-02T04:51:04.936Z,1.00
2018-12-02T04:52:07.763Z,0.00
2018-12-02T04:53:11.208Z,0.00
2018-12-02T04:54:14.619Z,0.00
2018-12-02T04:55:18.591Z,0.00
2018-12-02T04:56:21.465Z,0.00
2018-12-02T04:57:24.331Z,0.00
2018-12-02T04:58:27.433Z,0.00
2018-12-02T04:59:30.275Z,0.00
2018-12-02T05:00:33.141Z,0.00
2018-12-02T05:01:36.388Z,0.00
2018-12-02T05:02:39.337Z,0.00
2018-12-02T05:03:42.364Z,0.00
2018-12-02T05:04:45.485Z,0.00
2018-12-02T05:05:48.488Z,0.00
2018-12-02T05:06:51.548Z,0.00
2018-12-02T05:07:54.700Z,0.00
2018-12-02T05:08:57.642Z,0.00
2018-12-02T05:10:00.735Z,0.00
2018-12-02T05:11:04.026Z,0.00
2018-12-02T05:12:06.894Z,0.00
2018-12-02T05:13:09.816Z,0.00
2018-12-02T05:14:12.925Z,0.00
2018-12-02T05:15:16.339Z,0.00
2018-12-02T05:16:19.849Z,0.00
2018-12-02T05:17:22.776Z,0.00
2018-12-02T05:18:26.084Z,0.00
2018-12-02T05:19:29.246Z,0.00
2018-12-02T05:20:32.960Z,0.00
2018-12-02T05:21:37.139Z,0.00
2018-12-02T05:22:40.076Z,0.00
2018-12-02T05:23:42.994Z,0.00
2018-12-02T05:24:46.220Z,0.00
2018-12-02T05:25:49.453Z,0.00
2018-12-02T05:26:52.888Z,0.00
2018-12-02T05:27:55.781Z,0.00
2018-12-02T05:28:59.062Z,0.00
2018-12-02T05:30:02.545Z,0.00
2018-12-02T05:31:06.403Z,0.00
2018-12-02T05:32:09.582Z,0.00
2018-12-02T05:33:13.269Z,0.00
2018-12-02T05:34:16.370Z,0.00
2018-12-02T05:35:19.198Z,0.00
2018-12-02T05:36:22.014Z,0.00
2018-12-02T05:37:24.823Z,0.00
2018-12-02T05:38:28.157Z,0.00
2018-12-02T05:39:31.474Z,0.00
2018-12-02T05:40:34.357Z,0.00
2018-12-02T05:41:42.026Z,0.00
2018-12-02T05:42:44.867Z,0.00
2018-12-02T05:43:48.203Z,0.00
2018-12-02T05:44:51.499Z,0.00
2018-12-02T05:45:55.239Z,0.00
2018-12-02T05:46:59.411Z,0.00
2018-12-02T05:48:03.688Z,0.00
2018-12-02T05:49:07.078Z,0.00
2018-12-02T05:50:10.357Z,0.00
2018-12-02T05:51:13.249Z,0.00
2018-12-02T05:52:16.767Z,0.00
2018-12-02T05:53:20.617Z,0.00
2018-12-02T05:54:23.497Z,0.00
2018-12-02T05:55:26.318Z,0.00
2018-12-02T05:56:29.134Z,0.00
2018-12-02T05:57:32.270Z,0.00
2018-12-02T05:58:35.776Z,0.00
2018-12-02T05:59:38.683Z,0.00
2018-12-02T06:00:42.436Z,0.00
2018-12-02T06:01:45.525Z,0.00
2018-12-02T06:02:51.691Z,0.00
2018-12-02T06:03:54.945Z,0.00
2018-12-02T06:04:58.316Z,0.00
2018-12-02T06:06:01.136Z,0.00
2018-12-02T06:07:04.320Z,0.00
2018-12-02T06:08:07.535Z,0.00
2018-12-02T06:09:11.017Z,0.00
2018-12-02T06:10:13.979Z,0.00
2018-12-02T06:11:17.235Z,0.00
2018-12-02T06:12:20.370Z,0.00
2018-12-02T06:13:23.225Z,0.00
2018-12-02T06:14:26.110Z,0.00
2018-12-02T06:15:28.933Z,0.00
2018-12-02T06:16:32.209Z,0.00
2018-12-02T06:18:52.397Z,0.00
2018-12-02T06:20:04.910Z,0.00
2018-12-02T06:21:07.247Z,0.00
2018-12-02T06:22:10.074Z,0.00
2018-12-02T06:23:12.907Z,0.00
2018-12-02T06:24:15.734Z,0.00
2018-12-02T06:25:18.968Z,0.00
2018-12-02T06:26:21.809Z,0.00
2018-12-02T06:27:24.768Z,0.00
2018-12-02T06:28:27.675Z,0.00
2018-12-02T06:29:30.785Z,0.00
2018-12-02T06:44:04.742Z,0.00
2018-12-02T06:45:07.822Z,0.00
2018-12-02T06:46:10.694Z,0.00
2018-12-02T06:47:13.535Z,0.00
2018-12-02T06:48:16.361Z,0.00
2018-12-02T06:49:19.653Z,0.00
2018-12-02T06:50:22.715Z,0.00
2018-12-02T06:51:25.524Z,0.00
2018-12-02T06:52:28.354Z,0.00
2018-12-02T06:53:31.179Z,0.00
2018-12-02T06:54:34.011Z,0.00
2018-12-02T06:55:39.449Z,0.00
2018-12-02T06:56:45.841Z,0.00
2018-12-02T06:57:48.651Z,0.00
2018-12-02T06:58:53.979Z,0.00
2018-12-02T06:59:57.795Z,0.00
2018-12-02T07:01:00.640Z,0.00
2018-12-02T07:02:07.091Z,0.00
2018-12-02T07:03:09.942Z,0.00
2018-12-02T07:04:12.792Z,0.00
2018-12-02T07:05:15.629Z,0.00
2018-12-02T07:06:18.467Z,0.00
2018-12-02T07:07:21.290Z,0.00
2018-12-02T07:08:25.482Z,0.00
2018-12-02T07:09:28.318Z,0.00
2018-12-02T07:10:31.141Z,0.00
2018-12-02T07:11:33.954Z,0.00
2018-12-02T07:12:36.746Z,0.00
2018-12-02T07:13:39.794Z,0.00
2018-12-02T07:14:42.992Z,0.00
2018-12-02T07:15:45.813Z,0.00
2018-12-02T07:16:48.645Z,0.00
2018-12-02T07:17:51.483Z,0.00
2018-12-02T07:18:56.445Z,0.00
2018-12-02T07:19:59.966Z,0.00
2018-12-02T07:21:05.305Z,0.00
2018-12-02T07:22:10.268Z,0.00
2018-12-02T07:23:14.130Z,0.00
2018-12-02T07:24:19.339Z,0.00
2018-12-02T07:25:23.158Z,0.00
2018-12-02T07:26:28.375Z,0.00
2018-12-02T07:27:31.598Z,0.00
2018-12-02T07:28:34.458Z,0.00
2018-12-02T07:29:37.317Z,0.00
2018-12-02T07:30:40.746Z,0.00
2018-12-02T07:31:44.232Z,0.00
2018-12-02T07:32:47.097Z,0.00
2018-12-02T07:33:50.223Z,0.00
2018-12-02T07:34:53.071Z,0.00
2018-12-02T07:35:56.142Z,0.00
2018-12-02T07:37:00.518Z,0.00
2018-12-02T07:38:03.347Z,0.00
2018-12-02T07:39:06.433Z,0.00
2018-12-02T07:40:09.562Z,0.00
2018-12-02T07:41:12.392Z,0.00
2018-12-02T07:42:15.219Z,0.00
2018-12-02T07:43:18.054Z,0.00
2018-12-02T07:44:20.894Z,0.00
2018-12-02T07:45:23.720Z,0.00
2018-12-02T07:46:27.601Z,0.00
2018-12-02T07:47:31.066Z,0.00
2018-12-02T07:48:33.903Z,0.00
2018-12-02T07:49:36.721Z,0.00
2018-12-02T07:50:40.172Z,0.00
2018-12-02T07:51:42.544Z,0.00
2018-12-02T07:52:45.714Z,0.00
2018-12-02T07:53:49.432Z,0.00
2018-12-02T07:54:52.370Z,0.00
2018-12-02T07:55:55.300Z,0.00
2018-12-02T07:56:58.137Z,0.00
2018-12-02T07:58:01.011Z,0.00
2018-12-02T07:59:04.158Z,0.00
2018-12-02T08:00:06.973Z,0.00
2018-12-02T08:01:09.809Z,0.00
2018-12-02T08:02:12.686Z,0.00
2018-12-02T08:03:15.488Z,0.00
2018-12-02T08:04:18.407Z,0.00
2018-12-02T08:05:21.645Z,0.00
2018-12-02T08:06:24.533Z,0.00
2018-12-02T08:07:27.602Z,0.00
2018-12-02T08:08:30.666Z,0.00
2018-12-02T08:09:33.497Z,0.00
2018-12-02T08:10:36.311Z,0.00
2018-12-02T08:11:39.930Z,0.00
2018-12-02T08:12:43.446Z,0.00
2018-12-02T08:13:46.354Z,0.00
2018-12-02T08:14:49.260Z,0.00
2018-12-02T08:15:53.331Z,0.00
2018-12-02T08:16:56.238Z,0.00
2018-12-02T08:18:00.658Z,0.00
2018-12-02T08:19:03.475Z,0.00
2018-12-02T08:20:06.302Z,0.00
2018-12-02T08:21:09.127Z,0.00
2018-12-02T08:22:12.566Z,0.00
2018-12-02T08:23:15.423Z,0.00
2018-12-02T08:24:18.719Z,0.00
2018-12-02T08:25:21.606Z,0.00
2018-12-02T08:26:24.505Z,0.00
2018-12-02T08:27:27.346Z,0.00
2018-12-02T08:28:33.311Z,0.00
2018-12-02T08:29:36.341Z,0.00
2018-12-02T08:30:41.454Z,0.00
2018-12-02T08:31:49.068Z,0.00
2018-12-02T08:32:53.156Z,0.00
2018-12-02T08:33:56.969Z,0.00
2018-12-02T08:34:59.838Z,0.00
2018-12-02T08:36:02.722Z,1.00
2018-12-02T08:37:06.619Z,0.00
2018-12-02T08:38:11.140Z,1.00
2018-12-02T08:39:16.489Z,0.00
2018-12-02T08:40:19.305Z,0.00
2018-12-02T08:41:23.622Z,0.00
2018-12-02T08:42:26.669Z,0.00
2018-12-02T08:43:29.869Z,0.00
2018-12-02T08:44:32.748Z,0.00
2018-12-02T08:45:38.050Z,0.00
2018-12-02T08:46:41.147Z,0.00
2018-12-02T08:47:44.054Z,0.00
2018-12-02T08:48:47.462Z,0.00
2018-12-02T08:49:50.780Z,0.00
2018-12-02T08:50:53.617Z,0.00
2018-12-02T08:51:57.405Z,0.00
2018-12-02T08:53:00.762Z,0.00
2018-12-02T08:54:04.507Z,0.00
2018-12-02T08:55:07.447Z,0.00
2018-12-02T08:56:10.722Z,0.00
2018-12-02T08:57:13.624Z,0.00
2018-12-02T08:58:16.511Z,0.00
2018-12-02T08:59:19.644Z,0.00
2018-12-02T09:00:24.558Z,0.00
2018-12-02T09:01:27.649Z,0.00
2018-12-02T09:02:30.901Z,0.00
2018-12-02T09:03:33.774Z,0.00
2018-12-02T09:04:36.674Z,0.00
2018-12-02T09:05:39.570Z,0.00
2018-12-02T09:06:42.444Z,0.00
2018-12-02T09:07:45.286Z,0.00
2018-12-02T09:08:48.442Z,0.00
2018-12-02T09:09:59.294Z,0.00
2018-12-02T09:10:54.675Z,0.00
2018-12-02T09:11:57.754Z,0.00
2018-12-02T09:13:01.850Z,0.00
2018-12-02T09:14:05.247Z,0.00
2018-12-02T09:15:08.389Z,0.00
2018-12-02T09:16:12.418Z,0.00
2018-12-02T09:17:16.963Z,0.00
2018-12-02T09:18:19.822Z,0.00
2018-12-02T09:19:22.627Z,0.00
2018-12-02T09:20:34.403Z,0.00
2018-12-02T09:21:37.244Z,0.00
2018-12-02T09:22:40.094Z,0.00
2018-12-02T09:23:47.407Z,0.00
2018-12-02T09:24:46.457Z,0.00
2018-12-02T09:25:49.319Z,0.00
2018-12-02T09:28:11.360Z,0.00
2018-12-02T09:29:14.191Z,0.00
2018-12-02T09:30:19.820Z,0.00
2018-12-02T09:31:22.759Z,0.00
2018-12-02T09:32:25.705Z,0.00
2018-12-02T09:33:31.377Z,0.00
2018-12-02T09:34:36.392Z,0.00
2018-12-02T09:35:41.616Z,0.00
2018-12-02T09:36:45.437Z,0.00
2018-12-02T09:37:51.060Z,0.00
2018-12-02T09:38:55.535Z,0.00
2018-12-02T09:39:59.431Z,0.00
2018-12-02T09:41:04.587Z,0.00
2018-12-02T09:42:08.373Z,0.00
2018-12-02T09:43:11.408Z,0.00
2018-12-02T09:44:15.462Z,0.00
2018-12-02T09:45:18.982Z,0.00
2018-12-02T09:46:23.662Z,0.00
2018-12-02T09:47:29.403Z,0.00
2018-12-02T09:48:33.212Z,0.00
2018-12-02T09:49:36.125Z,0.00
2018-12-02T09:51:50.124Z,0.00
2018-12-02T09:52:54.028Z,0.00
2018-12-02T09:54:00.108Z,1.00
2018-12-02T09:55:05.305Z,0.00
2018-12-02T09:56:11.309Z,0.25
2018-12-02T09:57:16.073Z,4.50
2018-12-02T09:58:27.897Z,0.00
2018-12-02T09:59:32.635Z,3.00
2018-12-02T10:00:37.578Z,0.00
2018-12-02T10:01:42.307Z,0.00
2018-12-02T10:02:45.683Z,0.00
2018-12-02T10:03:50.324Z,0.00
2018-12-02T10:04:55.443Z,0.00
2018-12-02T10:06:01.113Z,0.00
2018-12-02T10:07:05.226Z,0.00
2018-12-02T10:08:09.589Z,1.00
2018-12-02T10:09:14.633Z,0.00
2018-12-02T10:10:26.054Z,0.75
2018-12-02T10:11:29.943Z,0.00
2018-12-02T10:12:32.791Z,0.00
2018-12-02T10:13:36.588Z,3.00
2018-12-02T10:14:39.415Z,1.00
2018-12-02T10:15:42.482Z,1.50
2018-12-02T10:16:50.592Z,0.00
2018-12-02T10:17:56.475Z,0.00
2018-12-02T10:19:01.242Z,0.00
2018-12-02T10:20:08.521Z,0.00
2018-12-02T10:21:13.535Z,0.00
2018-12-02T10:22:17.365Z,0.00
2018-12-02T10:23:20.594Z,0.00
2018-12-02T10:24:25.053Z,0.00
2018-12-02T10:25:28.548Z,0.50
2018-12-02T10:26:31.379Z,0.50
2018-12-02T10:27:34.243Z,0.00
2018-12-02T10:28:37.129Z,0.00
2018-12-02T10:29:40.260Z,1.00
2018-12-02T10:30:43.214Z,0.00
2018-12-02T10:31:46.147Z,0.00
2018-12-02T10:32:50.101Z,0.00
2018-12-02T10:33:53.561Z,0.00
2018-12-02T10:34:57.345Z,0.00
2018-12-02T10:36:01.098Z,1.00
2018-12-02T10:37:04.375Z,1.00
2018-12-02T10:38:07.203Z,0.00
2018-12-02T10:39:10.426Z,0.00
2018-12-02T10:40:13.567Z,0.00
2018-12-02T10:41:16.954Z,0.00
2018-12-02T10:42:21.344Z,0.00
2018-12-02T10:43:25.412Z,0.00
2018-12-02T10:44:29.034Z,0.00
2018-12-02T10:45:32.300Z,0.00
2018-12-02T10:46:36.237Z,0.00
2018-12-02T10:47:40.029Z,0.00
2018-12-02T10:48:44.311Z,0.00
2018-12-02T10:49:51.334Z,0.00
2018-12-02T10:50:54.773Z,0.00
2018-12-02T10:52:00.674Z,0.00
2018-12-02T10:53:05.199Z,0.00
2018-12-02T10:54:10.360Z,0.00
2018-12-02T10:55:13.745Z,0.00
2018-12-02T10:56:29.029Z,0.00
2018-12-02T10:57:32.447Z,0.00
2018-12-02T10:58:37.207Z,0.00
2018-12-02T10:59:44.698Z,0.00
2018-12-02T11:00:54.452Z,0.00
2018-12-02T11:02:19.353Z,0.00
2018-12-02T11:03:23.577Z,0.00
2018-12-02T11:04:29.064Z,0.00
2018-12-02T11:05:35.181Z,0.00
2018-12-02T11:06:39.545Z,0.00
2018-12-02T11:07:43.151Z,0.00
2018-12-02T11:08:53.323Z,0.00
2018-12-02T11:09:58.943Z,0.00
2018-12-02T11:11:06.554Z,0.00
2018-12-02T11:12:13.590Z,0.00
2018-12-02T11:13:19.969Z,0.00
2018-12-02T11:14:25.699Z,0.00
2018-12-02T11:15:28.681Z,0.00
2018-12-02T11:16:32.189Z,0.00
2018-12-02T11:17:39.295Z,0.00
2018-12-02T11:18:43.389Z,0.00
2018-12-02T11:19:49.877Z,0.00
2018-12-02T11:20:53.893Z,0.00
2018-12-02T11:22:01.581Z,0.00
2018-12-02T11:23:04.951Z,0.00
2018-12-02T11:24:07.968Z,0.00
2018-12-02T11:25:12.585Z,0.00
2018-12-02T11:26:17.727Z,0.00
2018-12-02T11:27:21.171Z,0.00
2018-12-02T11:28:24.145Z,0.00
2018-12-02T11:29:30.491Z,0.00
2018-12-02T11:42:55.480Z,0.00
2018-12-02T11:44:01.134Z,0.00
2018-12-02T11:45:04.149Z,0.00
2018-12-02T11:46:07.088Z,0.75
2018-12-02T11:47:10.337Z,0.00
2018-12-02T11:48:14.234Z,0.00
2018-12-02T11:49:17.302Z,0.00
2018-12-02T11:50:20.673Z,0.00
2018-12-02T11:51:23.549Z,0.00
2018-12-02T11:52:26.552Z,0.00
2018-12-02T11:53:29.454Z,0.00
2018-12-02T11:54:34.573Z,0.00
2018-12-02T11:55:40.026Z,0.00
2018-12-02T11:56:44.747Z,0.00
2018-12-02T11:57:47.700Z,0.00
2018-12-02T11:58:50.693Z,0.00
2018-12-02T11:59:53.653Z,0.00
2018-12-02T12:00:56.525Z,0.00
2018-12-02T12:01:59.593Z,0.00
2018-12-02T12:03:03.096Z,0.00
2018-12-02T12:04:07.747Z,0.00
2018-12-02T12:05:10.808Z,0.00
2018-12-02T12:06:14.115Z,0.00
2018-12-02T12:07:17.076Z,0.00
2018-12-02T12:08:20.029Z,0.00
2018-12-02T12:09:23.034Z,0.00
2018-12-02T12:10:27.133Z,0.00
2018-12-02T12:11:30.969Z,0.00
2018-12-02T12:12:35.062Z,0.00
2018-12-02T12:13:40.302Z,0.00
2018-12-02T12:14:44.252Z,1.00
2018-12-02T12:15:48.526Z,0.25
2018-12-02T12:16:52.245Z,0.00
2018-12-02T12:17:55.767Z,0.00
2018-12-02T12:18:59.523Z,0.00
2018-12-02T12:20:02.868Z,0.00
2018-12-02T12:21:07.522Z,1.00
2018-12-02T12:22:12.545Z,0.00
2018-12-02T12:23:17.016Z,0.00
2018-12-02T12:24:20.249Z,0.00
2018-12-02T12:25:24.642Z,0.00
2018-12-02T12:26:29.570Z,0.00
2018-12-02T12:27:32.713Z,0.25
2018-12-02T12:28:37.218Z,0.00
2018-12-02T12:29:40.663Z,0.00
2018-12-02T12:30:44.632Z,0.75
2018-12-02T12:31:48.993Z,0.00
2018-12-02T12:32:52.075Z,0.00
2018-12-02T12:33:55.692Z,0.00
2018-12-02T12:34:59.396Z,0.00
2018-12-02T12:36:02.541Z,0.00
2018-12-02T12:37:05.973Z,0.50
2018-12-02T12:38:11.518Z,0.00
2018-12-02T12:39:14.912Z,0.25
2018-12-02T12:40:18.262Z,0.00
2018-12-02T12:41:21.432Z,0.00
2018-12-02T12:42:24.604Z,0.00
2018-12-02T12:43:28.076Z,0.00
2018-12-02T12:44:31.328Z,0.50
2018-12-02T12:45:34.884Z,0.00
2018-12-02T12:46:37.883Z,0.00
2018-12-02T12:47:41.435Z,0.00
2018-12-02T12:48:44.926Z,0.00
2018-12-02T12:49:48.303Z,0.00
2018-12-02T12:50:56.015Z,0.00
2018-12-02T12:52:00.338Z,1.00
2018-12-02T12:53:04.335Z,0.00
2018-12-02T12:54:07.677Z,0.00
2018-12-02T12:55:12.951Z,0.50
2018-12-02T12:56:18.559Z,0.00
2018-12-02T12:57:22.947Z,0.25
2018-12-02T12:58:26.743Z,1.00
2018-12-02T12:59:31.426Z,0.00
2018-12-02T13:00:34.357Z,0.00
2018-12-02T13:01:37.514Z,2.50
2018-12-02T13:02:40.350Z,1.00
2018-12-02T13:03:43.844Z,1.00
2018-12-02T13:04:46.694Z,1.00
2018-12-02T13:05:50.222Z,0.00
2018-12-02T13:06:53.126Z,0.25
2018-12-02T13:07:56.874Z,1.50
2018-12-02T13:09:00.059Z,3.00
2018-12-02T13:10:03.336Z,0.00
2018-12-02T13:11:06.226Z,0.00
2018-12-02T13:12:10.684Z,0.00
2018-12-02T13:13:13.558Z,0.00
2018-12-02T13:14:17.411Z,0.00
2018-12-02T13:15:20.294Z,1.00
2018-12-02T13:16:23.175Z,0.75
2018-12-02T13:17:26.217Z,1.00
2018-12-02T13:18:29.209Z,1.00
2018-12-02T13:19:32.658Z,1.00
2018-12-02T13:20:35.655Z,0.00
2018-12-02T13:21:39.919Z,0.00
2018-12-02T13:22:43.326Z,0.75
2018-12-02T13:23:46.185Z,0.00
2018-12-02T13:24:51.042Z,1.00
2018-12-02T13:25:54.737Z,0.25
2018-12-02T13:26:58.280Z,0.00
2018-12-02T13:28:01.371Z,0.00
2018-12-02T13:29:04.805Z,0.75
2018-12-02T13:30:08.303Z,0.00
2018-12-02T13:31:12.543Z,0.25
2018-12-02T13:32:15.879Z,0.25
2018-12-02T13:33:18.905Z,0.25
2018-12-02T13:34:23.186Z,1.00
2018-12-02T13:35:29.044Z,0.50
2018-12-02T13:36:33.574Z,0.00
2018-12-02T13:37:36.775Z,0.50
2018-12-02T13:38:40.342Z,0.00
2018-12-02T13:39:46.020Z,1.00
2018-12-02T13:40:50.793Z,1.00
2018-12-02T13:41:54.900Z,1.00
2018-12-02T13:42:57.821Z,1.00
2018-12-02T13:44:00.683Z,0.00
2018-12-02T13:45:04.624Z,1.00
2018-12-02T13:46:07.786Z,1.00
2018-12-02T13:47:10.726Z,0.25
2018-12-02T13:48:14.503Z,1.00
2018-12-02T13:49:19.338Z,1.00
2018-12-02T13:50:22.834Z,1.00
2018-12-02T13:51:26.568Z,0.75
2018-12-02T13:52:30.331Z,0.75
2018-12-02T13:53:37.302Z,1.00
2018-12-02T13:54:40.244Z,0.25
2018-12-02T13:55:43.397Z,1.00
2018-12-02T13:56:46.385Z,1.00
2018-12-02T13:57:49.251Z,1.00
2018-12-02T13:58:52.159Z,1.00
2018-12-02T13:59:55.232Z,0.00
2018-12-02T14:00:58.393Z,0.00
2018-12-02T14:02:01.846Z,0.00
2018-12-02T14:03:05.571Z,0.25
2018-12-02T14:04:09.441Z,1.00
2018-12-02T14:05:12.304Z,1.00
2018-12-02T14:06:16.305Z,0.00
2018-12-02T14:07:19.521Z,1.00
2018-12-02T14:08:22.387Z,1.00
2018-12-02T14:09:25.206Z,1.00
2018-12-02T14:10:32.646Z,1.00
2018-12-02T14:11:35.507Z,1.00
2018-12-02T14:12:39.253Z,1.00
2018-12-02T14:13:43.547Z,1.00
2018-12-02T14:14:49.364Z,1.00
2018-12-02T14:15:52.231Z,3.00
2018-12-02T14:29:12.214Z,2.00
2018-12-02T14:30:21.569Z,2.75
2018-12-02T14:31:30.418Z,2.50
2018-12-02T14:32:37.264Z,3.25
2018-12-02T14:33:42.415Z,1.00
2018-12-02T14:34:49.558Z,2.50
2018-12-02T14:35:53.079Z,1.50
2018-12-02T14:36:56.698Z,2.50
2018-12-02T14:38:01.570Z,2.00
2018-12-02T14:39:05.911Z,2.50
2018-12-02T14:40:10.796Z,3.00
2018-12-02T14:41:14.867Z,3.00
2018-12-02T14:42:18.639Z,3.00
2018-12-02T14:43:23.074Z,3.00
2018-12-02T14:44:26.599Z,3.75
2018-12-02T14:45:32.436Z,1.00
2018-12-02T14:46:37.395Z,3.00
2018-12-02T14:47:40.610Z,1.00
2018-12-02T14:48:44.598Z,1.00
2018-12-02T14:49:47.618Z,3.00
2018-12-02T14:50:51.544Z,2.00